sensor_id;sensor_type;location;lat;lon;timestamp;temperature;humidity
1602;DHT22;794;48.592;9.634;2023-04-24T00:01:34;10.60;1.00
1602;DHT22;794;48.592;9.634;2023-04-24T00:04:02;10.40;1.00
1602;DHT22;794;48.592;9.634;2023-04-24T00:06:33;10.60;1.00
1602;DHT22;794;48.592;9.634;2023-04-24T00:09:02;10.70;1.00
1602;DHT22;794;48.592;9.634;2023-04-24T00:11:30;10.50;1.00
1602;DHT22;794;48.592;9.634;2023-04-24T00:13:57;10.30;1.00
1602;DHT22;794;48.592;9.634;2023-04-24T00:16:24;10.10;1.00
1602;DHT22;794;48.592;9.634;2023-04-24T00:18:51;10.20;1.00
1602;DHT22;794;48.592;9.634;2023-04-24T00:21:18;10.20;1.00
1602;DHT22;794;48.592;9.634;2023-04-24T00:23:47;10.50;1.00
1602;DHT22;794;48.592;9.634;2023-04-24T00:26:14;9.90;1.00
1602;DHT22;794;48.592;9.634;2023-04-24T00:28:43;10.10;1.00
1602;DHT22;794;48.592;9.634;2023-04-24T00:31:10;10.10;1.00
1602;DHT22;794;48.592;9.634;2023-04-24T00:33:39;10.30;1.00
1602;DHT22;794;48.592;9.634;2023-04-24T00:36:08;10.20;1.00
1602;DHT22;794;48.592;9.634;2023-04-24T00:38:35;10.00;1.00
1602;DHT22;794;48.592;9.634;2023-04-24T00:41:03;10.30;1.00
1602;DHT22;794;48.592;9.634;2023-04-24T00:43:30;10.20;1.00
1602;DHT22;794;48.592;9.634;2023-04-24T00:45:57;10.40;1.00
1602;DHT22;794;48.592;9.634;2023-04-24T00:48:25;10.40;1.00
1602;DHT22;794;48.592;9.634;2023-04-24T00:50:54;10.30;1.00
1602;DHT22;794;48.592;9.634;2023-04-24T00:53:24;10.50;1.00
1602;DHT22;794;48.592;9.634;2023-04-24T00:55:51;10.30;1.00
1602;DHT22;794;48.592;9.634;2023-04-24T00:58:19;10.60;1.00
1602;DHT22;794;48.592;9.634;2023-04-24T01:00:47;10.20;1.00
1602;DHT22;794;48.592;9.634;2023-04-24T01:03:19;10.30;1.00
1602;DHT22;794;48.592;9.634;2023-04-24T01:05:47;10.40;1.00
1602;DHT22;794;48.592;9.634;2023-04-24T01:08:15;10.10;1.00
1602;DHT22;794;48.592;9.634;2023-04-24T01:10:44;10.10;1.00
1602;DHT22;794;48.592;9.634;2023-04-24T01:13:13;10.00;1.00
1602;DHT22;794;48.592;9.634;2023-04-24T01:15:41;10.10;1.00
1602;DHT22;794;48.592;9.634;2023-04-24T01:18:08;10.00;1.00
1602;DHT22;794;48.592;9.634;2023-04-24T01:20:36;9.70;1.00
1602;DHT22;794;48.592;9.634;2023-04-24T01:23:06;9.80;1.00
1602;DHT22;794;48.592;9.634;2023-04-24T01:25:34;9.80;1.00
1602;DHT22;794;48.592;9.634;2023-04-24T01:28:03;9.60;1.00
1602;DHT22;794;48.592;9.634;2023-04-24T01:30:30;9.90;1.00
1602;DHT22;794;48.592;9.634;2023-04-24T01:32:58;9.60;1.00
1602;DHT22;794;48.592;9.634;2023-04-24T01:35:27;9.60;1.00
1602;DHT22;794;48.592;9.634;2023-04-24T01:37:54;9.40;1.00
1602;DHT22;794;48.592;9.634;2023-04-24T01:40:24;9.50;1.00
1602;DHT22;794;48.592;9.634;2023-04-24T01:42:51;9.70;1.00
1602;DHT22;794;48.592;9.634;2023-04-24T01:45:18;9.30;1.00
1602;DHT22;794;48.592;9.634;2023-04-24T01:47:45;9.70;1.00
1602;DHT22;794;48.592;9.634;2023-04-24T01:50:12;9.70;1.00
1602;DHT22;794;48.592;9.634;2023-04-24T01:52:39;9.60;1.00
1602;DHT22;794;48.592;9.634;2023-04-24T01:55:09;9.70;1.00
1602;DHT22;794;48.592;9.634;2023-04-24T01:57:40;10.00;1.00
1602;DHT22;794;48.592;9.634;2023-04-24T02:00:08;9.70;1.00
1602;DHT22;794;48.592;9.634;2023-04-24T02:02:39;10.00;1.00
1602;DHT22;794;48.592;9.634;2023-04-24T02:05:09;10.10;1.00
1602;DHT22;794;48.592;9.634;2023-04-24T02:07:38;9.90;1.00
1602;DHT22;794;48.592;9.634;2023-04-24T02:10:09;10.00;1.00
1602;DHT22;794;48.592;9.634;2023-04-24T02:12:36;10.30;1.00
1602;DHT22;794;48.592;9.634;2023-04-24T02:15:05;8.30;1.00
1602;DHT22;794;48.592;9.634;2023-04-24T02:17:32;10.20;1.00
1602;DHT22;794;48.592;9.634;2023-04-24T02:19:59;10.10;1.00
1602;DHT22;794;48.592;9.634;2023-04-24T02:22:29;10.30;1.00
1602;DHT22;794;48.592;9.634;2023-04-24T02:24:57;10.10;1.00
1602;DHT22;794;48.592;9.634;2023-04-24T02:27:24;10.20;1.00
1602;DHT22;794;48.592;9.634;2023-04-24T02:29:53;9.90;1.00
1602;DHT22;794;48.592;9.634;2023-04-24T02:32:22;10.10;1.00
1602;DHT22;794;48.592;9.634;2023-04-24T02:34:49;10.00;1.00
1602;DHT22;794;48.592;9.634;2023-04-24T02:37:16;10.10;1.00
1602;DHT22;794;48.592;9.634;2023-04-24T02:39:42;9.90;1.00
1602;DHT22;794;48.592;9.634;2023-04-24T02:42:09;10.00;1.00
1602;DHT22;794;48.592;9.634;2023-04-24T02:44:39;11.30;1.00
1602;DHT22;794;48.592;9.634;2023-04-24T02:47:09;10.20;1.00
1602;DHT22;794;48.592;9.634;2023-04-24T02:49:37;10.00;1.00
1602;DHT22;794;48.592;9.634;2023-04-24T02:52:04;10.20;1.00
1602;DHT22;794;48.592;9.634;2023-04-24T02:54:34;10.00;1.00
1602;DHT22;794;48.592;9.634;2023-04-24T02:57:02;10.00;1.00
1602;DHT22;794;48.592;9.634;2023-04-24T02:59:30;10.20;1.00
1602;DHT22;794;48.592;9.634;2023-04-24T03:02:00;10.20;1.00
1602;DHT22;794;48.592;9.634;2023-04-24T03:04:28;10.20;1.00
1602;DHT22;794;48.592;9.634;2023-04-24T03:06:59;12.70;1.00
1602;DHT22;794;48.592;9.634;2023-04-24T03:09:29;10.50;1.00
1602;DHT22;794;48.592;9.634;2023-04-24T03:11:58;10.30;1.00
1602;DHT22;794;48.592;9.634;2023-04-24T03:14:25;10.50;1.00
1602;DHT22;794;48.592;9.634;2023-04-24T03:16:56;10.30;1.00
1602;DHT22;794;48.592;9.634;2023-04-24T03:19:23;10.30;1.00
1602;DHT22;794;48.592;9.634;2023-04-24T03:21:50;10.40;1.00
1602;DHT22;794;48.592;9.634;2023-04-24T03:24:20;10.30;1.00
1602;DHT22;794;48.592;9.634;2023-04-24T03:26:48;10.50;1.00
1602;DHT22;794;48.592;9.634;2023-04-24T03:29:14;10.50;1.00
1602;DHT22;794;48.592;9.634;2023-04-24T03:31:43;10.30;1.00
1602;DHT22;794;48.592;9.634;2023-04-24T03:34:10;10.00;1.00
1602;DHT22;794;48.592;9.634;2023-04-24T03:36:37;10.30;1.00
1602;DHT22;794;48.592;9.634;2023-04-24T03:39:04;10.40;1.00
1602;DHT22;794;48.592;9.634;2023-04-24T03:41:35;10.20;1.00
1602;DHT22;794;48.592;9.634;2023-04-24T03:44:04;10.10;1.00
1602;DHT22;794;48.592;9.634;2023-04-24T03:46:34;10.30;1.00
1602;DHT22;794;48.592;9.634;2023-04-24T03:49:04;10.20;1.00
1602;DHT22;794;48.592;9.634;2023-04-24T03:51:32;9.60;1.00
1602;DHT22;794;48.592;9.634;2023-04-24T03:53:59;10.30;1.00
1602;DHT22;794;48.592;9.634;2023-04-24T03:56:28;10.20;1.00
1602;DHT22;794;48.592;9.634;2023-04-24T03:58:56;10.00;1.00
1602;DHT22;794;48.592;9.634;2023-04-24T04:01:23;10.40;1.00
1602;DHT22;794;48.592;9.634;2023-04-24T04:03:50;10.60;1.00
1602;DHT22;794;48.592;9.634;2023-04-24T04:06:19;10.60;1.00
1602;DHT22;794;48.592;9.634;2023-04-24T04:08:47;10.70;1.00
1602;DHT22;794;48.592;9.634;2023-04-24T04:11:13;10.50;1.00
1602;DHT22;794;48.592;9.634;2023-04-24T04:13:44;10.20;1.00
1602;DHT22;794;48.592;9.634;2023-04-24T04:16:12;10.30;1.00
1602;DHT22;794;48.592;9.634;2023-04-24T04:18:39;10.40;1.00
1602;DHT22;794;48.592;9.634;2023-04-24T04:21:08;10.20;1.00
1602;DHT22;794;48.592;9.634;2023-04-24T04:23:34;10.30;1.00
1602;DHT22;794;48.592;9.634;2023-04-24T04:26:05;10.20;1.00
1602;DHT22;794;48.592;9.634;2023-04-24T04:28:33;10.40;1.00
1602;DHT22;794;48.592;9.634;2023-04-24T04:31:03;10.30;1.00
1602;DHT22;794;48.592;9.634;2023-04-24T04:33:34;10.30;1.00
1602;DHT22;794;48.592;9.634;2023-04-24T04:36:03;10.40;1.00
1602;DHT22;794;48.592;9.634;2023-04-24T04:38:30;10.30;1.00
1602;DHT22;794;48.592;9.634;2023-04-24T04:40:57;10.20;1.00
1602;DHT22;794;48.592;9.634;2023-04-24T04:43:24;10.50;1.00
1602;DHT22;794;48.592;9.634;2023-04-24T04:45:54;10.50;1.00
1602;DHT22;794;48.592;9.634;2023-04-24T04:48:23;10.50;1.00
1602;DHT22;794;48.592;9.634;2023-04-24T04:50:51;10.40;1.00
1602;DHT22;794;48.592;9.634;2023-04-24T04:53:18;10.30;1.00
1602;DHT22;794;48.592;9.634;2023-04-24T04:55:45;10.30;1.00
1602;DHT22;794;48.592;9.634;2023-04-24T04:58:13;10.50;1.00
1602;DHT22;794;48.592;9.634;2023-04-24T05:00:40;10.70;1.00
1602;DHT22;794;48.592;9.634;2023-04-24T05:03:09;10.80;1.00
1602;DHT22;794;48.592;9.634;2023-04-24T05:05:36;10.70;1.00
1602;DHT22;794;48.592;9.634;2023-04-24T05:08:07;10.30;1.00
1602;DHT22;794;48.592;9.634;2023-04-24T05:10:34;10.80;1.00
1602;DHT22;794;48.592;9.634;2023-04-24T05:13:02;11.00;1.00
1602;DHT22;794;48.592;9.634;2023-04-24T05:15:29;11.00;1.00
1602;DHT22;794;48.592;9.634;2023-04-24T05:17:58;11.10;1.00
1602;DHT22;794;48.592;9.634;2023-04-24T05:20:25;11.10;1.00
1602;DHT22;794;48.592;9.634;2023-04-24T05:22:52;11.20;1.00
1602;DHT22;794;48.592;9.634;2023-04-24T05:25:20;11.20;1.00
1602;DHT22;794;48.592;9.634;2023-04-24T05:27:47;10.80;1.00
1602;DHT22;794;48.592;9.634;2023-04-24T05:30:14;10.90;1.00
1602;DHT22;794;48.592;9.634;2023-04-24T05:32:44;10.70;1.00
1602;DHT22;794;48.592;9.634;2023-04-24T05:35:13;8.90;1.00
1602;DHT22;794;48.592;9.634;2023-04-24T05:37:40;10.10;1.00
1602;DHT22;794;48.592;9.634;2023-04-24T05:40:09;9.90;1.00
1602;DHT22;794;48.592;9.634;2023-04-24T05:42:37;9.70;1.00
1602;DHT22;794;48.592;9.634;2023-04-24T05:45:06;9.70;1.00
1602;DHT22;794;48.592;9.634;2023-04-24T05:47:33;9.50;1.00
1602;DHT22;794;48.592;9.634;2023-04-24T05:50:00;9.40;1.00
1602;DHT22;794;48.592;9.634;2023-04-24T05:52:28;9.20;1.00
1602;DHT22;794;48.592;9.634;2023-04-24T05:54:55;8.90;1.00
1602;DHT22;794;48.592;9.634;2023-04-24T05:57:23;9.10;1.00
1602;DHT22;794;48.592;9.634;2023-04-24T05:59:53;9.00;1.00
1602;DHT22;794;48.592;9.634;2023-04-24T06:02:20;9.00;1.00
1602;DHT22;794;48.592;9.634;2023-04-24T06:04:48;9.20;1.00
1602;DHT22;794;48.592;9.634;2023-04-24T06:07:15;9.20;1.00
1602;DHT22;794;48.592;9.634;2023-04-24T06:09:44;9.40;1.00
1602;DHT22;794;48.592;9.634;2023-04-24T06:12:10;9.30;1.00
1602;DHT22;794;48.592;9.634;2023-04-24T06:14:37;9.20;1.00
1602;DHT22;794;48.592;9.634;2023-04-24T06:17:07;9.40;1.00
1602;DHT22;794;48.592;9.634;2023-04-24T06:19:34;9.70;1.00
1602;DHT22;794;48.592;9.634;2023-04-24T06:22:03;9.70;1.00
1602;DHT22;794;48.592;9.634;2023-04-24T06:24:30;10.00;1.00
1602;DHT22;794;48.592;9.634;2023-04-24T06:26:59;10.00;1.00
1602;DHT22;794;48.592;9.634;2023-04-24T06:29:29;10.30;1.00
1602;DHT22;794;48.592;9.634;2023-04-24T06:31:58;10.20;1.00
1602;DHT22;794;48.592;9.634;2023-04-24T06:34:29;10.50;1.00
1602;DHT22;794;48.592;9.634;2023-04-24T06:36:58;10.80;1.00
1602;DHT22;794;48.592;9.634;2023-04-24T06:39:25;11.20;1.00
1602;DHT22;794;48.592;9.634;2023-04-24T06:41:53;11.60;1.00
1602;DHT22;794;48.592;9.634;2023-04-24T06:44:20;11.60;1.00
1602;DHT22;794;48.592;9.634;2023-04-24T06:46:50;11.90;1.00
1602;DHT22;794;48.592;9.634;2023-04-24T06:49:20;12.30;1.00
1602;DHT22;794;48.592;9.634;2023-04-24T06:51:49;12.40;1.00
1602;DHT22;794;48.592;9.634;2023-04-24T06:54:16;12.60;1.00
1602;DHT22;794;48.592;9.634;2023-04-24T06:56:43;13.20;1.00
1602;DHT22;794;48.592;9.634;2023-04-24T06:59:14;14.50;1.00
1602;DHT22;794;48.592;9.634;2023-04-24T07:01:41;16.20;1.00
1602;DHT22;794;48.592;9.634;2023-04-24T07:04:08;15.00;1.00
1602;DHT22;794;48.592;9.634;2023-04-24T07:06:35;15.70;1.00
1602;DHT22;794;48.592;9.634;2023-04-24T07:09:04;15.00;1.00
1602;DHT22;794;48.592;9.634;2023-04-24T07:11:34;14.20;1.00
1602;DHT22;794;48.592;9.634;2023-04-24T07:14:03;14.50;1.00
1602;DHT22;794;48.592;9.634;2023-04-24T07:16:30;14.60;1.00
1602;DHT22;794;48.592;9.634;2023-04-24T07:18:59;18.70;1.00
1602;DHT22;794;48.592;9.634;2023-04-24T07:26:29;24.20;1.00
1602;DHT22;794;48.592;9.634;2023-04-24T07:28:58;24.90;1.00
1602;DHT22;794;48.592;9.634;2023-04-24T07:31:25;25.00;1.00
1602;DHT22;794;48.592;9.634;2023-04-24T07:33:54;25.20;1.00
1602;DHT22;794;48.592;9.634;2023-04-24T07:38:54;26.80;1.00
1602;DHT22;794;48.592;9.634;2023-04-24T07:41:28;26.50;1.00
1602;DHT22;794;48.592;9.634;2023-04-24T07:43:55;25.60;1.00
1602;DHT22;794;48.592;9.634;2023-04-24T07:46:22;23.10;1.00
1602;DHT22;794;48.592;9.634;2023-04-24T07:48:53;20.80;1.00
1602;DHT22;794;48.592;9.634;2023-04-24T07:51:20;19.30;1.00
1602;DHT22;794;48.592;9.634;2023-04-24T07:53:48;17.70;1.00
1602;DHT22;794;48.592;9.634;2023-04-24T07:56:18;16.60;1.00
1602;DHT22;794;48.592;9.634;2023-04-24T07:58:48;16.20;1.00
1602;DHT22;794;48.592;9.634;2023-04-24T08:01:14;15.50;1.00
1602;DHT22;794;48.592;9.634;2023-04-24T08:03:43;14.50;1.00
1602;DHT22;794;48.592;9.634;2023-04-24T08:06:10;14.50;1.00
1602;DHT22;794;48.592;9.634;2023-04-24T08:08:37;14.80;1.00
1602;DHT22;794;48.592;9.634;2023-04-24T08:11:04;16.60;1.00
1602;DHT22;794;48.592;9.634;2023-04-24T08:13:32;18.20;1.00
1602;DHT22;794;48.592;9.634;2023-04-24T08:16:01;19.20;1.00
1602;DHT22;794;48.592;9.634;2023-04-24T08:18:28;18.10;1.00
1602;DHT22;794;48.592;9.634;2023-04-24T08:20:55;17.80;1.00
1602;DHT22;794;48.592;9.634;2023-04-24T08:23:28;16.70;1.00
1602;DHT22;794;48.592;9.634;2023-04-24T08:25:55;16.10;1.00
1602;DHT22;794;48.592;9.634;2023-04-24T08:28:24;15.40;1.00
1602;DHT22;794;48.592;9.634;2023-04-24T08:30:54;16.40;1.00
1602;DHT22;794;48.592;9.634;2023-04-24T08:33:22;17.20;1.00
1602;DHT22;794;48.592;9.634;2023-04-24T08:35:49;17.40;1.00
1602;DHT22;794;48.592;9.634;2023-04-24T08:38:18;18.10;1.00
1602;DHT22;794;48.592;9.634;2023-04-24T08:40:45;17.50;1.00
1602;DHT22;794;48.592;9.634;2023-04-24T08:43:15;17.30;1.00
1602;DHT22;794;48.592;9.634;2023-04-24T08:45:45;17.50;1.00
1602;DHT22;794;48.592;9.634;2023-04-24T08:48:13;18.30;1.00
1602;DHT22;794;48.592;9.634;2023-04-24T08:50:44;17.10;1.00
1602;DHT22;794;48.592;9.634;2023-04-24T08:53:11;16.40;1.00
1602;DHT22;794;48.592;9.634;2023-04-24T08:55:47;15.90;1.00
1602;DHT22;794;48.592;9.634;2023-04-24T08:58:25;15.60;1.00
1602;DHT22;794;48.592;9.634;2023-04-24T09:00:56;15.30;1.00
1602;DHT22;794;48.592;9.634;2023-04-24T09:03:27;14.00;1.00
1602;DHT22;794;48.592;9.634;2023-04-24T09:05:57;13.80;1.00
1602;DHT22;794;48.592;9.634;2023-04-24T09:08:25;13.80;1.00
1602;DHT22;794;48.592;9.634;2023-04-24T09:10:52;13.50;1.00
1602;DHT22;794;48.592;9.634;2023-04-24T09:13:20;13.30;1.00
1602;DHT22;794;48.592;9.634;2023-04-24T09:15:48;13.00;1.00
1602;DHT22;794;48.592;9.634;2023-04-24T09:18:15;12.80;1.00
1602;DHT22;794;48.592;9.634;2023-04-24T09:21:06;13.10;1.00
1602;DHT22;794;48.592;9.634;2023-04-24T09:23:33;13.40;1.00
1602;DHT22;794;48.592;9.634;2023-04-24T09:26:04;14.40;1.00
1602;DHT22;794;48.592;9.634;2023-04-24T09:28:36;14.90;1.00
1602;DHT22;794;48.592;9.634;2023-04-24T09:31:05;16.00;1.00
1602;DHT22;794;48.592;9.634;2023-04-24T09:33:35;17.30;1.00
1602;DHT22;794;48.592;9.634;2023-04-24T09:36:07;18.10;1.00
1602;DHT22;794;48.592;9.634;2023-04-24T09:38:36;20.10;1.00
1602;DHT22;794;48.592;9.634;2023-04-24T09:41:06;18.40;1.00
1602;DHT22;794;48.592;9.634;2023-04-24T09:43:36;22.30;1.00
1602;DHT22;794;48.592;9.634;2023-04-24T09:46:07;21.30;1.00
1602;DHT22;794;48.592;9.634;2023-04-24T09:48:37;20.80;1.00
1602;DHT22;794;48.592;9.634;2023-04-24T09:51:06;19.70;1.00
1602;DHT22;794;48.592;9.634;2023-04-24T09:53:36;21.00;1.00
1602;DHT22;794;48.592;9.634;2023-04-24T09:56:10;19.80;1.00
1602;DHT22;794;48.592;9.634;2023-04-24T09:58:39;18.10;1.00
1602;DHT22;794;48.592;9.634;2023-04-24T10:01:09;17.70;1.00
1602;DHT22;794;48.592;9.634;2023-04-24T10:03:36;17.20;1.00
1602;DHT22;794;48.592;9.634;2023-04-24T10:09:29;15.80;1.00
1602;DHT22;794;48.592;9.634;2023-04-24T10:11:57;15.80;1.00
1602;DHT22;794;48.592;9.634;2023-04-24T10:14:25;15.30;1.00
1602;DHT22;794;48.592;9.634;2023-04-24T10:16:54;14.70;1.00
